sensor_id;sensor_type;location;lat;lon;timestamp;pressure;altitude;pressure_sealevel;temperature;humidity
61874;BME280;49692;55.052;73.310;2022-08-06T00:00:00;100426.59;;;18.58;74.60
61874;BME280;49692;55.052;73.310;2022-08-06T00:02:38;100431.22;;;18.69;74.50
61874;BME280;49692;55.052;73.310;2022-08-06T00:05:17;100437.19;;;18.73;74.43
61874;BME280;49692;55.052;73.310;2022-08-06T00:07:49;100431.22;;;18.69;74.80
61874;BME280;49692;55.052;73.310;2022-08-06T00:10:17;100432.38;;;18.65;75.10
61874;BME280;49692;55.052;73.310;2022-08-06T00:12:45;100428.94;;;18.63;75.25
61874;BME280;49692;55.052;73.310;2022-08-06T00:15:12;100441.00;;;18.68;74.77
61874;BME280;49692;55.052;73.310;2022-08-06T00:17:39;100432.38;;;18.65;74.96
61874;BME280;49692;55.052;73.310;2022-08-06T00:20:06;100429.19;;;18.73;75.01
61874;BME280;49692;55.052;73.310;2022-08-06T00:22:33;100429.38;;;18.70;75.27
61874;BME280;49692;55.052;73.310;2022-08-06T00:24:59;100433.25;;;18.78;74.67
61874;BME280;49692;55.052;73.310;2022-08-06T00:27:29;100435.81;;;18.80;74.51
61874;BME280;49692;55.052;73.310;2022-08-06T00:29:56;100433.69;;;18.85;73.85
61874;BME280;49692;55.052;73.310;2022-08-06T00:32:27;100426.50;;;19.00;72.57
61874;BME280;49692;55.052;73.310;2022-08-06T00:34:54;100432.69;;;19.01;73.55
61874;BME280;49692;55.052;73.310;2022-08-06T00:37:20;100431.81;;;19.00;73.42
61874;BME280;49692;55.052;73.310;2022-08-06T00:39:47;100432.50;;;19.04;73.31
61874;BME280;49692;55.052;73.310;2022-08-06T00:42:14;100429.63;;;19.07;73.33
61874;BME280;49692;55.052;73.310;2022-08-06T00:44:41;100436.53;;;19.09;73.47
61874;BME280;49692;55.052;73.310;2022-08-06T00:47:07;100426.00;;;19.21;71.56
61874;BME280;49692;55.052;73.310;2022-08-06T00:49:34;100436.88;;;19.31;70.94
61874;BME280;49692;55.052;73.310;2022-08-06T00:52:00;100441.69;;;19.38;70.34
61874;BME280;49692;55.052;73.310;2022-08-06T00:54:29;100440.19;;;19.60;70.23
61874;BME280;49692;55.052;73.310;2022-08-06T00:56:56;100440.91;;;19.62;70.22
61874;BME280;49692;55.052;73.310;2022-08-06T00:59:23;100442.75;;;19.62;71.83
61874;BME280;49692;55.052;73.310;2022-08-06T01:01:49;100449.78;;;19.63;70.44
61874;BME280;49692;55.052;73.310;2022-08-06T01:04:26;100445.72;;;19.70;70.87
61874;BME280;49692;55.052;73.310;2022-08-06T01:06:58;100445.16;;;19.78;69.44
61874;BME280;49692;55.052;73.310;2022-08-06T01:09:25;100442.63;;;19.89;68.79
61874;BME280;49692;55.052;73.310;2022-08-06T01:11:53;100461.91;;;19.93;68.92
61874;BME280;49692;55.052;73.310;2022-08-06T01:14:20;100453.59;;;19.97;69.22
61874;BME280;49692;55.052;73.310;2022-08-06T01:16:51;100445.13;;;20.16;68.36
61874;BME280;49692;55.052;73.310;2022-08-06T01:22:08;100455.34;;;20.36;67.71
61874;BME280;49692;55.052;73.310;2022-08-06T01:29:52;100456.41;;;20.57;66.88
61874;BME280;49692;55.052;73.310;2022-08-06T01:32:31;100447.88;;;20.76;65.94
61874;BME280;49692;55.052;73.310;2022-08-06T01:35:08;100443.59;;;20.87;65.88
61874;BME280;49692;55.052;73.310;2022-08-06T01:37:58;100446.91;;;21.02;65.69
61874;BME280;49692;55.052;73.310;2022-08-06T01:40:33;100442.06;;;21.07;65.31
61874;BME280;49692;55.052;73.310;2022-08-06T01:43:02;100445.94;;;21.14;64.58
61874;BME280;49692;55.052;73.310;2022-08-06T01:45:36;100443.31;;;21.25;64.90
61874;BME280;49692;55.052;73.310;2022-08-06T01:48:10;100442.59;;;21.35;64.79
61874;BME280;49692;55.052;73.310;2022-08-06T01:50:45;100454.41;;;21.32;64.75
61874;BME280;49692;55.052;73.310;2022-08-06T01:53:16;100443.19;;;21.27;64.87
61874;BME280;49692;55.052;73.310;2022-08-06T01:55:52;100445.53;;;21.43;64.42
61874;BME280;49692;55.052;73.310;2022-08-06T01:58:27;100447.84;;;21.48;64.51
61874;BME280;49692;55.052;73.310;2022-08-06T02:00:54;100443.81;;;21.42;64.57
61874;BME280;49692;55.052;73.310;2022-08-06T02:03:29;100457.97;;;21.67;64.60
61874;BME280;49692;55.052;73.310;2022-08-06T02:06:07;100460.63;;;21.55;65.08
61874;BME280;49692;55.052;73.310;2022-08-06T02:08:45;100461.59;;;21.66;65.03
61874;BME280;49692;55.052;73.310;2022-08-06T02:11:17;100463.19;;;21.68;64.90
61874;BME280;49692;55.052;73.310;2022-08-06T02:13:45;100455.53;;;21.75;64.99
61874;BME280;49692;55.052;73.310;2022-08-06T02:16:34;100460.19;;;21.84;64.78
61874;BME280;49692;55.052;73.310;2022-08-06T02:19:12;100460.28;;;21.83;64.71
61874;BME280;49692;55.052;73.310;2022-08-06T02:21:42;100462.00;;;21.95;64.39
61874;BME280;49692;55.052;73.310;2022-08-06T02:24:10;100462.63;;;21.99;65.12
61874;BME280;49692;55.052;73.310;2022-08-06T02:26:41;100461.88;;;22.08;64.39
61874;BME280;49692;55.052;73.310;2022-08-06T02:29:14;100462.72;;;22.20;63.42
61874;BME280;49692;55.052;73.310;2022-08-06T02:31:43;100460.63;;;22.24;63.33
61874;BME280;49692;55.052;73.310;2022-08-06T02:34:20;100457.81;;;22.25;63.24
61874;BME280;49692;55.052;73.310;2022-08-06T02:36:57;100460.44;;;22.48;62.77
61874;BME280;49692;55.052;73.310;2022-08-06T02:39:28;100456.31;;;22.44;63.40
61874;BME280;49692;55.052;73.310;2022-08-06T02:42:03;100468.97;;;22.65;63.17
61874;BME280;49692;55.052;73.310;2022-08-06T02:47:23;100457.25;;;22.66;63.39
61874;BME280;49692;55.052;73.310;2022-08-06T02:49:54;100454.59;;;22.66;62.79
61874;BME280;49692;55.052;73.310;2022-08-06T02:52:49;100453.22;;;22.71;61.64
61874;BME280;49692;55.052;73.310;2022-08-06T02:55:25;100459.31;;;22.73;61.90
61874;BME280;49692;55.052;73.310;2022-08-06T02:57:55;100450.03;;;22.77;62.85
61874;BME280;49692;55.052;73.310;2022-08-06T03:00:24;100446.75;;;22.74;62.92
61874;BME280;49692;55.052;73.310;2022-08-06T03:02:59;100449.66;;;22.82;63.06
61874;BME280;49692;55.052;73.310;2022-08-06T03:05:27;100451.28;;;22.95;62.40
61874;BME280;49692;55.052;73.310;2022-08-06T03:08:00;100451.88;;;22.98;63.50
61874;BME280;49692;55.052;73.310;2022-08-06T03:10:36;100447.31;;;23.10;62.17
61874;BME280;49692;55.052;73.310;2022-08-06T03:13:04;100438.59;;;23.18;61.60
61874;BME280;49692;55.052;73.310;2022-08-06T03:15:33;100437.22;;;23.23;63.49
61874;BME280;49692;55.052;73.310;2022-08-06T03:18:12;100443.16;;;23.27;61.54
61874;BME280;49692;55.052;73.310;2022-08-06T03:20:41;100446.56;;;23.29;60.21
61874;BME280;49692;55.052;73.310;2022-08-06T03:23:12;100443.38;;;23.35;59.95
61874;BME280;49692;55.052;73.310;2022-08-06T03:25:43;100441.34;;;23.49;57.38
61874;BME280;49692;55.052;73.310;2022-08-06T03:28:13;100449.38;;;23.70;57.94
61874;BME280;49692;55.052;73.310;2022-08-06T03:30:41;100445.81;;;23.69;58.47
61874;BME280;49692;55.052;73.310;2022-08-06T03:33:19;100444.34;;;23.87;58.06
61874;BME280;49692;55.052;73.310;2022-08-06T03:35:46;100444.31;;;23.77;58.29
61874;BME280;49692;55.052;73.310;2022-08-06T03:38:18;100444.03;;;23.80;58.45
61874;BME280;49692;55.052;73.310;2022-08-06T03:40:47;100445.16;;;23.77;57.36
61874;BME280;49692;55.052;73.310;2022-08-06T03:43:16;100444.16;;;23.78;56.98
61874;BME280;49692;55.052;73.310;2022-08-06T03:45:53;100441.44;;;24.09;57.87
61874;BME280;49692;55.052;73.310;2022-08-06T03:48:32;100443.56;;;24.06;58.28
61874;BME280;49692;55.052;73.310;2022-08-06T03:51:02;100443.03;;;24.12;58.81
61874;BME280;49692;55.052;73.310;2022-08-06T03:53:40;100443.38;;;24.28;57.12
61874;BME280;49692;55.052;73.310;2022-08-06T03:56:16;100447.03;;;24.37;57.93
61874;BME280;49692;55.052;73.310;2022-08-06T03:59:02;100441.13;;;24.43;57.44
61874;BME280;49692;55.052;73.310;2022-08-06T04:01:35;100446.22;;;24.56;57.80
61874;BME280;49692;55.052;73.310;2022-08-06T04:04:17;100447.63;;;24.60;58.16
61874;BME280;49692;55.052;73.310;2022-08-06T04:06:52;100438.56;;;24.62;56.61
61874;BME280;49692;55.052;73.310;2022-08-06T04:09:21;100433.38;;;24.80;55.19
61874;BME280;49692;55.052;73.310;2022-08-06T04:11:53;100440.28;;;24.82;56.26
61874;BME280;49692;55.052;73.310;2022-08-06T04:14:21;100431.22;;;24.83;53.37
61874;BME280;49692;55.052;73.310;2022-08-06T04:16:53;100431.66;;;24.88;52.46
61874;BME280;49692;55.052;73.310;2022-08-06T04:19:24;100434.50;;;24.97;53.64
61874;BME280;49692;55.052;73.310;2022-08-06T04:21:54;100426.44;;;24.97;53.61
61874;BME280;49692;55.052;73.310;2022-08-06T04:24:21;100429.66;;;25.10;53.99
61874;BME280;49692;55.052;73.310;2022-08-06T04:26:52;100423.81;;;25.25;53.84
61874;BME280;49692;55.052;73.310;2022-08-06T04:29:31;100429.53;;;25.12;52.09
61874;BME280;49692;55.052;73.310;2022-08-06T04:31:59;100423.53;;;25.28;49.99
61874;BME280;49692;55.052;73.310;2022-08-06T04:34:28;100430.34;;;25.32;50.22
61874;BME280;49692;55.052;73.310;2022-08-06T04:37:02;100432.75;;;25.35;48.71
61874;BME280;49692;55.052;73.310;2022-08-06T04:39:40;100418.69;;;25.41;48.51
61874;BME280;49692;55.052;73.310;2022-08-06T04:42:15;100426.53;;;25.62;49.88
61874;BME280;49692;55.052;73.310;2022-08-06T04:44:43;100427.28;;;25.55;47.65
61874;BME280;49692;55.052;73.310;2022-08-06T04:47:11;100417.16;;;25.39;47.26
61874;BME280;49692;55.052;73.310;2022-08-06T04:49:40;100416.22;;;25.58;45.87
61874;BME280;49692;55.052;73.310;2022-08-06T04:52:23;100421.94;;;25.83;46.02
61874;BME280;49692;55.052;73.310;2022-08-06T04:54:54;100427.50;;;25.81;45.29
61874;BME280;49692;55.052;73.310;2022-08-06T04:57:21;100434.03;;;25.78;45.46
61874;BME280;49692;55.052;73.310;2022-08-06T04:59:50;100422.34;;;25.88;44.60
61874;BME280;49692;55.052;73.310;2022-08-06T05:02:30;100425.84;;;25.98;45.10
61874;BME280;49692;55.052;73.310;2022-08-06T05:05:12;100421.94;;;25.83;44.95
61874;BME280;49692;55.052;73.310;2022-08-06T05:07:44;100427.31;;;25.83;43.84
61874;BME280;49692;55.052;73.310;2022-08-06T05:10:16;100424.38;;;26.04;44.61
61874;BME280;49692;55.052;73.310;2022-08-06T05:12:51;100420.78;;;26.13;44.17
61874;BME280;49692;55.052;73.310;2022-08-06T05:15:36;100419.41;;;26.27;41.19
61874;BME280;49692;55.052;73.310;2022-08-06T05:18:33;100416.06;;;26.25;40.04
61874;BME280;49692;55.052;73.310;2022-08-06T05:21:31;100405.56;;;26.40;42.47
61874;BME280;49692;55.052;73.310;2022-08-06T05:24:00;100410.66;;;26.25;41.84
61874;BME280;49692;55.052;73.310;2022-08-06T05:26:36;100409.81;;;26.42;42.66
61874;BME280;49692;55.052;73.310;2022-08-06T05:29:03;100408.47;;;26.56;44.08
61874;BME280;49692;55.052;73.310;2022-08-06T05:31:35;100415.63;;;26.48;43.03
61874;BME280;49692;55.052;73.310;2022-08-06T05:34:03;100410.75;;;26.51;40.78
61874;BME280;49692;55.052;73.310;2022-08-06T05:36:30;100412.91;;;26.66;40.99
61874;BME280;49692;55.052;73.310;2022-08-06T05:38:58;100405.59;;;26.76;41.01
61874;BME280;49692;55.052;73.310;2022-08-06T05:41:26;100400.94;;;26.86;43.17
61874;BME280;49692;55.052;73.310;2022-08-06T05:43:54;100400.44;;;26.65;39.44
61874;BME280;49692;55.052;73.310;2022-08-06T05:46:52;100400.03;;;26.78;39.22
61874;BME280;49692;55.052;73.310;2022-08-06T05:49:28;100395.47;;;26.96;40.48
61874;BME280;49692;55.052;73.310;2022-08-06T05:53:30;100393.16;;;27.01;40.39
61874;BME280;49692;55.052;73.310;2022-08-06T05:55:37;100384.38;;;26.99;42.26
61874;BME280;49692;55.052;73.310;2022-08-06T05:58:14;100395.50;;;27.23;43.01
61874;BME280;49692;55.052;73.310;2022-08-06T06:00:50;100390.50;;;27.10;40.52
61874;BME280;49692;55.052;73.310;2022-08-06T06:03:21;100384.81;;;26.95;40.66
61874;BME280;49692;55.052;73.310;2022-08-06T06:05:51;100382.81;;;26.97;39.18
61874;BME280;49692;55.052;73.310;2022-08-06T06:08:19;100386.50;;;26.96;40.62
61874;BME280;49692;55.052;73.310;2022-08-06T06:10:48;100373.44;;;27.27;41.43
61874;BME280;49692;55.052;73.310;2022-08-06T06:13:15;100367.91;;;27.37;39.76
61874;BME280;49692;55.052;73.310;2022-08-06T06:15:49;100372.41;;;27.02;41.11
61874;BME280;49692;55.052;73.310;2022-08-06T06:24:34;100357.94;;;27.29;40.44
61874;BME280;49692;55.052;73.310;2022-08-06T06:27:07;100365.03;;;27.39;40.47
61874;BME280;49692;55.052;73.310;2022-08-06T06:29:55;100361.31;;;27.31;40.59
61874;BME280;49692;55.052;73.310;2022-08-06T06:35:31;100359.00;;;27.45;38.40
61874;BME280;49692;55.052;73.310;2022-08-06T06:38:07;100354.63;;;27.44;37.82
61874;BME280;49692;55.052;73.310;2022-08-06T06:43:23;100370.00;;;27.95;38.79
61874;BME280;49692;55.052;73.310;2022-08-06T06:48:54;100360.38;;;28.00;38.80
61874;BME280;49692;55.052;73.310;2022-08-06T06:51:32;100363.31;;;27.64;38.73
61874;BME280;49692;55.052;73.310;2022-08-06T06:53:59;100365.75;;;27.41;40.05
61874;BME280;49692;55.052;73.310;2022-08-06T06:56:36;100362.78;;;27.26;39.65
61874;BME280;49692;55.052;73.310;2022-08-06T06:59:21;100357.94;;;27.29;39.16
61874;BME280;49692;55.052;73.310;2022-08-06T07:01:52;100349.47;;;27.67;38.05
61874;BME280;49692;55.052;73.310;2022-08-06T07:04:26;100344.22;;;27.57;37.93
61874;BME280;49692;55.052;73.310;2022-08-06T07:06:58;100343.41;;;27.65;38.13
61874;BME280;49692;55.052;73.310;2022-08-06T07:09:30;100341.72;;;27.72;39.12
61874;BME280;49692;55.052;73.310;2022-08-06T07:12:07;100346.34;;;27.45;38.46
61874;BME280;49692;55.052;73.310;2022-08-06T07:14:36;100348.22;;;27.45;37.67
61874;BME280;49692;55.052;73.310;2022-08-06T07:17:06;100347.06;;;27.90;38.55
61874;BME280;49692;55.052;73.310;2022-08-06T07:19:35;100342.25;;;27.76;36.39
61874;BME280;49692;55.052;73.310;2022-08-06T07:22:05;100345.00;;;27.92;36.75
61874;BME280;49692;55.052;73.310;2022-08-06T07:24:36;100337.28;;;28.14;35.03
61874;BME280;49692;55.052;73.310;2022-08-06T07:27:04;100329.66;;;27.93;36.30
61874;BME280;49692;55.052;73.310;2022-08-06T07:29:32;100331.72;;;28.07;35.83
61874;BME280;49692;55.052;73.310;2022-08-06T07:32:03;100335.78;;;28.28;35.54
61874;BME280;49692;55.052;73.310;2022-08-06T07:34:30;100317.72;;;28.37;35.05
61874;BME280;49692;55.052;73.310;2022-08-06T07:36:57;100316.00;;;28.44;36.41
61874;BME280;49692;55.052;73.310;2022-08-06T07:39:29;100314.53;;;28.58;37.60
61874;BME280;49692;55.052;73.310;2022-08-06T07:42:00;100315.72;;;28.47;35.91
61874;BME280;49692;55.052;73.310;2022-08-06T07:44:32;100312.31;;;28.62;37.51
61874;BME280;49692;55.052;73.310;2022-08-06T07:47:02;100312.81;;;28.49;35.87
61874;BME280;49692;55.052;73.310;2022-08-06T07:49:36;100327.97;;;28.00;36.75
61874;BME280;49692;55.052;73.310;2022-08-06T07:52:06;100326.59;;;27.88;36.43
61874;BME280;49692;55.052;73.310;2022-08-06T07:54:33;100318.50;;;27.88;35.72
61874;BME280;49692;55.052;73.310;2022-08-06T07:57:02;100321.06;;;28.06;35.58
61874;BME280;49692;55.052;73.310;2022-08-06T07:59:30;100315.69;;;28.22;35.09
61874;BME280;49692;55.052;73.310;2022-08-06T08:01:58;100304.22;;;28.45;35.25
61874;BME280;49692;55.052;73.310;2022-08-06T08:04:28;100308.09;;;28.59;35.08
61874;BME280;49692;55.052;73.310;2022-08-06T08:07:14;100316.31;;;28.91;37.28
61874;BME280;49692;55.052;73.310;2022-08-06T08:09:43;100300.63;;;28.86;35.31
61874;BME280;49692;55.052;73.310;2022-08-06T08:12:16;100312.41;;;29.02;34.52
61874;BME280;49692;55.052;73.310;2022-08-06T08:14:51;100310.13;;;28.74;35.66
61874;BME280;49692;55.052;73.310;2022-08-06T08:17:29;100304.97;;;29.12;36.57
61874;BME280;49692;55.052;73.310;2022-08-06T08:20:10;100307.00;;;29.10;36.72
61874;BME280;49692;55.052;73.310;2022-08-06T08:22:38;100311.59;;;28.84;36.89
61874;BME280;49692;55.052;73.310;2022-08-06T08:25:10;100303.16;;;28.71;38.53
61874;BME280;49692;55.052;73.310;2022-08-06T08:27:37;100298.09;;;28.43;38.29
61874;BME280;49692;55.052;73.310;2022-08-06T08:30:05;100301.81;;;28.42;37.28
61874;BME280;49692;55.052;73.310;2022-08-06T08:32:33;100298.16;;;28.51;36.63
61874;BME280;49692;55.052;73.310;2022-08-06T08:35:01;100305.38;;;28.67;35.92
61874;BME280;49692;55.052;73.310;2022-08-06T08:37:38;100296.06;;;28.70;35.26
61874;BME280;49692;55.052;73.310;2022-08-06T08:40:05;100282.50;;;28.95;36.70
61874;BME280;49692;55.052;73.310;2022-08-06T08:42:46;100292.16;;;28.89;39.01
61874;BME280;49692;55.052;73.310;2022-08-06T08:45:15;100285.22;;;28.95;38.41
61874;BME280;49692;55.052;73.310;2022-08-06T08:47:50;100290.59;;;29.03;37.45
61874;BME280;49692;55.052;73.310;2022-08-06T08:50:22;100286.22;;;28.86;36.66
61874;BME280;49692;55.052;73.310;2022-08-06T08:52:52;100285.25;;;28.78;35.57
61874;BME280;49692;55.052;73.310;2022-08-06T08:55:25;100294.19;;;28.79;35.93
61874;BME280;49692;55.052;73.310;2022-08-06T08:57:54;100284.00;;;28.97;34.74
61874;BME280;49692;55.052;73.310;2022-08-06T09:00:22;100286.91;;;28.88;35.68
61874;BME280;49692;55.052;73.310;2022-08-06T09:03:02;100285.38;;;28.93;35.58
61874;BME280;49692;55.052;73.310;2022-08-06T09:05:30;100286.38;;;28.92;35.22
61874;BME280;49692;55.052;73.310;2022-08-06T09:07:57;100281.81;;;28.93;36.20
61874;BME280;49692;55.052;73.310;2022-08-06T09:10:35;100275.94;;;28.89;36.76
61874;BME280;49692;55.052;73.310;2022-08-06T09:13:19;100265.75;;;28.99;37.41
61874;BME280;49692;55.052;73.310;2022-08-06T09:15:56;100277.38;;;29.08;37.29
61874;BME280;49692;55.052;73.310;2022-08-06T09:18:26;100270.09;;;29.09;37.38
61874;BME280;49692;55.052;73.310;2022-08-06T09:20:54;100272.13;;;29.15;37.25
61874;BME280;49692;55.052;73.310;2022-08-06T09:23:26;100271.63;;;29.03;37.27
61874;BME280;49692;55.052;73.310;2022-08-06T09:25:55;100272.91;;;29.32;38.03
61874;BME280;49692;55.052;73.310;2022-08-06T09:28:35;100269.25;;;29.17;34.49
61874;BME280;49692;55.052;73.310;2022-08-06T09:31:14;100271.47;;;29.13;34.97
61874;BME280;49692;55.052;73.310;2022-08-06T09:33:42;100266.88;;;29.22;34.41
61874;BME280;49692;55.052;73.310;2022-08-06T09:36:19;100262.75;;;29.34;35.41
61874;BME280;49692;55.052;73.310;2022-08-06T09:38:47;100266.13;;;29.36;35.65
61874;BME280;49692;55.052;73.310;2022-08-06T09:41:16;100252.25;;;29.31;33.93
61874;BME280;49692;55.052;73.310;2022-08-06T09:43:49;100251.56;;;29.37;34.11
61874;BME280;49692;55.052;73.310;2022-08-06T09:46:18;100251.56;;;29.37;35.99
61874;BME280;49692;55.052;73.310;2022-08-06T09:49:02;100258.81;;;29.37;35.66
61874;BME280;49692;55.052;73.310;2022-08-06T09:51:33;100242.19;;;29.08;34.72
61874;BME280;49692;55.052;73.310;2022-08-06T09:54:04;100239.81;;;29.13;35.62
61874;BME280;49692;55.052;73.310;2022-08-06T09:56:32;100242.22;;;29.40;36.22
61874;BME280;49692;55.052;73.310;2022-08-06T09:59:05;100235.50;;;29.36;36.60
61874;BME280;49692;55.052;73.310;2022-08-06T10:01:40;100238.97;;;29.44;35.91
61874;BME280;49692;55.052;73.310;2022-08-06T10:04:13;100235.81;;;29.64;37.36
61874;BME280;49692;55.052;73.310;2022-08-06T10:07:00;100232.38;;;29.79;34.70
61874;BME280;49692;55.052;73.310;2022-08-06T10:09:27;100223.72;;;29.52;34.15
61874;BME280;49692;55.052;73.310;2022-08-06T10:11:55;100224.25;;;29.47;35.16
61874;BME280;49692;55.052;73.310;2022-08-06T10:14:28;100227.69;;;29.64;35.30
61874;BME280;49692;55.052;73.310;2022-08-06T10:17:17;100220.25;;;29.66;34.81
61874;BME280;49692;55.052;73.310;2022-08-06T10:19:46;100217.53;;;29.66;36.04
61874;BME280;49692;55.052;73.310;2022-08-06T10:22:17;100217.50;;;29.74;35.79
61874;BME280;49692;55.052;73.310;2022-08-06T10:24:49;100214.69;;;29.59;35.16
61874;BME280;49692;55.052;73.310;2022-08-06T10:27:19;100218.00;;;29.70;34.85
61874;BME280;49692;55.052;73.310;2022-08-06T10:29:52;100222.47;;;29.63;34.19
61874;BME280;49692;55.052;73.310;2022-08-06T10:32:33;100222.59;;;29.69;34.42
61874;BME280;49692;55.052;73.310;2022-08-06T10:35:04;100225.56;;;29.51;33.89
61874;BME280;49692;55.052;73.310;2022-08-06T10:37:35;100228.78;;;29.23;34.50
61874;BME280;49692;55.052;73.310;2022-08-06T10:40:02;100225.16;;;29.39;34.79
61874;BME280;49692;55.052;73.310;2022-08-06T10:42:31;100220.06;;;29.68;35.61
61874;BME280;49692;55.052;73.310;2022-08-06T10:44:59;100211.41;;;29.49;35.30
61874;BME280;49692;55.052;73.310;2022-08-06T10:47:34;100213.31;;;29.40;36.46
61874;BME280;49692;55.052;73.310;2022-08-06T10:50:02;100205.22;;;29.32;36.22
61874;BME280;49692;55.052;73.310;2022-08-06T10:52:31;100211.41;;;29.49;36.99
61874;BME280;49692;55.052;73.310;2022-08-06T10:54:58;100207.81;;;29.80;36.48
61874;BME280;49692;55.052;73.310;2022-08-06T10:57:26;100210.66;;;30.25;35.45
61874;BME280;49692;55.052;73.310;2022-08-06T10:59:54;100212.38;;;30.03;34.60
61874;BME280;49692;55.052;73.310;2022-08-06T11:05:09;100206.66;;;31.26;33.00
61874;BME280;49692;55.052;73.310;2022-08-06T11:10:41;100201.81;;;31.21;32.97
61874;BME280;49692;55.052;73.310;2022-08-06T11:13:32;100200.69;;;31.74;32.10
61874;BME280;49692;55.052;73.310;2022-08-06T11:15:59;100185.22;;;31.53;33.23
61874;BME280;49692;55.052;73.310;2022-08-06T11:18:26;100192.78;;;31.36;32.90
61874;BME280;49692;55.052;73.310;2022-08-06T11:20:53;100190.22;;;31.71;33.00
61874;BME280;49692;55.052;73.310;2022-08-06T11:23:29;100192.03;;;31.85;33.11
61874;BME280;49692;55.052;73.310;2022-08-06T11:26:00;100179.69;;;32.11;33.49
61874;BME280;49692;55.052;73.310;2022-08-06T11:30:57;100182.28;;;31.33;33.05
61874;BME280;49692;55.052;73.310;2022-08-06T11:36:05;100184.03;;;31.04;33.18
61874;BME280;49692;55.052;73.310;2022-08-06T11:41:30;100170.69;;;31.24;32.45
61874;BME280;49692;55.052;73.310;2022-08-06T11:46:30;100168.59;;;30.89;33.56
61874;BME280;49692;55.052;73.310;2022-08-06T11:54:20;100160.75;;;30.34;35.06
61874;BME280;49692;55.052;73.310;2022-08-06T11:59:34;100166.91;;;29.90;37.04
61874;BME280;49692;55.052;73.310;2022-08-06T12:02:07;100159.88;;;29.81;37.25
61874;BME280;49692;55.052;73.310;2022-08-06T12:04:45;100161.44;;;29.52;37.65
61874;BME280;49692;55.052;73.310;2022-08-06T12:07:31;100174.63;;;29.23;38.04
61874;BME280;49692;55.052;73.310;2022-08-06T12:12:45;100164.34;;;29.19;37.28
61874;BME280;49692;55.052;73.310;2022-08-06T12:20:38;100164.53;;;28.77;39.04
61874;BME280;49692;55.052;73.310;2022-08-06T12:25:43;100152.06;;;28.68;39.96
61874;BME280;49692;55.052;73.310;2022-08-06T12:28:16;100153.97;;;28.59;39.12
61874;BME280;49692;55.052;73.310;2022-08-06T12:30:50;100154.59;;;28.61;39.15
61874;BME280;49692;55.052;73.310;2022-08-06T12:33:18;100160.19;;;28.68;38.68
61874;BME280;49692;55.052;73.310;2022-08-06T12:35:55;100157.28;;;28.69;39.20
61874;BME280;49692;55.052;73.310;2022-08-06T12:38:29;100146.53;;;28.45;39.31
61874;BME280;49692;55.052;73.310;2022-08-06T12:41:03;100148.72;;;28.41;39.17
61874;BME280;49692;55.052;73.310;2022-08-06T12:43:43;100145.34;;;28.39;39.85
61874;BME280;49692;55.052;73.310;2022-08-06T12:46:11;100147.41;;;28.37;40.03
61874;BME280;49692;55.052;73.310;2022-08-06T12:48:46;100151.47;;;28.33;40.52
61874;BME280;49692;55.052;73.310;2022-08-06T12:51:14;100146.88;;;28.33;40.98
61874;BME280;49692;55.052;73.310;2022-08-06T12:53:49;100142.88;;;28.21;40.79
61874;BME280;49692;55.052;73.310;2022-08-06T12:56:18;100145.75;;;28.19;41.10
61874;BME280;49692;55.052;73.310;2022-08-06T12:58:45;100149.13;;;28.13;41.05
61874;BME280;49692;55.052;73.310;2022-08-06T13:01:17;100150.16;;;28.04;40.94
61874;BME280;49692;55.052;73.310;2022-08-06T13:03:52;100145.91;;;28.01;41.29
61874;BME280;49692;55.052;73.310;2022-08-06T13:06:22;100148.28;;;28.13;41.72
61874;BME280;49692;55.052;73.310;2022-08-06T13:08:51;100142.38;;;28.17;41.23
61874;BME280;49692;55.052;73.310;2022-08-06T13:11:31;100150.81;;;28.22;41.50
61874;BME280;49692;55.052;73.310;2022-08-06T13:13:58;100146.94;;;28.00;41.80
61874;BME280;49692;55.052;73.310;2022-08-06T13:16:37;100152.28;;;28.33;41.94
61874;BME280;49692;55.052;73.310;2022-08-06T13:19:10;100151.66;;;28.23;42.15
61874;BME280;49692;55.052;73.310;2022-08-06T13:21:39;100145.59;;;28.13;42.03
61874;BME280;49692;55.052;73.310;2022-08-06T13:24:11;100152.09;;;28.43;42.00
61874;BME280;49692;55.052;73.310;2022-08-06T13:26:49;100145.00;;;28.42;41.29
61874;BME280;49692;55.052;73.310;2022-08-06T13:29:21;100148.56;;;28.59;41.05
61874;BME280;49692;55.052;73.310;2022-08-06T13:34:29;100148.41;;;28.36;41.65
61874;BME280;49692;55.052;73.310;2022-08-06T13:37:11;100147.75;;;28.34;42.44
61874;BME280;49692;55.052;73.310;2022-08-06T13:39:49;100139.59;;;28.42;41.83
61874;BME280;49692;55.052;73.310;2022-08-06T13:42:17;100146.09;;;28.00;42.93
61874;BME280;49692;55.052;73.310;2022-08-06T13:44:45;100140.03;;;27.89;43.50
61874;BME280;49692;55.052;73.310;2022-08-06T13:47:14;100142.19;;;27.61;43.95
61874;BME280;49692;55.052;73.310;2022-08-06T13:49:43;100142.38;;;27.43;44.17
61874;BME280;49692;55.052;73.310;2022-08-06T13:52:11;100148.28;;;27.38;45.26
61874;BME280;49692;55.052;73.310;2022-08-06T13:54:38;100153.06;;;27.10;45.47
61874;BME280;49692;55.052;73.310;2022-08-06T13:57:04;100149.50;;;27.09;45.04
61874;BME280;49692;55.052;73.310;2022-08-06T13:59:33;100153.31;;;26.90;45.29
61874;BME280;49692;55.052;73.310;2022-08-06T14:02:03;100157.88;;;26.90;46.28
61874;BME280;49692;55.052;73.310;2022-08-06T14:04:34;100154.44;;;26.71;47.07
61874;BME280;49692;55.052;73.310;2022-08-06T14:07:01;100156.94;;;26.64;46.27
61874;BME280;49692;55.052;73.310;2022-08-06T14:09:32;100156.22;;;26.54;46.39